Terminal Aerodrome Forecast
Issued by NWS

Home | Current Version | Previous Version | Text Only | Print | Product List | Glossary On
Versions: 1 2 3 4 5 6 7 8 9 10 11 12 13 14 15 16 17 18 19 20 21 22 23 24 25 26 27
531
FTUS41 KPBZ 151124
TAFLBE
TAF
KLBE 151124Z 1512/1612 00000KT P6SM SCT025
      TEMPO 1512/1514 BKN025
     FM151400 21003KT P6SM BKN050
     FM151800 24010G18KT P6SM VCSH BKN035
     FM160000 25012G20KT P6SM -SHSN BKN015=

USA.gov is the U.S. government's official web portal to all federal, state and local government web resources and services.